createdAt,value
2022-12-16T00:01:24.626Z,60.50
2022-12-16T00:03:54.981Z,60.50
2022-12-16T00:06:23.854Z,60.50
2022-12-16T00:08:53.670Z,60.20
2022-12-16T00:11:22.739Z,60.20
2022-12-16T00:13:50.625Z,60.20
2022-12-16T00:16:19.778Z,60.10
2022-12-16T00:18:47.793Z,60.10
2022-12-16T00:21:18.545Z,60.10
2022-12-16T00:23:46.554Z,59.90
2022-12-16T00:26:15.771Z,59.90
2022-12-16T00:28:44.226Z,60.10
2022-12-16T00:31:12.250Z,59.90
2022-12-16T00:33:40.156Z,60.00
2022-12-16T00:36:08.980Z,59.90
2022-12-16T00:38:36.833Z,60.00
2022-12-16T00:41:04.990Z,59.80
2022-12-16T00:43:34.499Z,59.60
2022-12-16T00:46:02.933Z,59.70
2022-12-16T00:48:30.884Z,59.50
2022-12-16T00:50:58.799Z,59.30
2022-12-16T00:53:26.706Z,59.60
2022-12-16T00:56:02.662Z,59.60
2022-12-16T00:58:30.537Z,58.90
2022-12-16T01:00:59.823Z,59.30
2022-12-16T01:03:27.829Z,58.80
2022-12-16T01:05:55.875Z,60.60
2022-12-16T01:08:23.747Z,59.10
2022-12-16T01:10:52.314Z,59.40
2022-12-16T01:13:20.601Z,59.50
2022-12-16T01:15:48.474Z,59.30
2022-12-16T01:18:17.719Z,59.50
2022-12-16T01:20:45.572Z,59.20
2022-12-16T01:23:13.445Z,59.30
2022-12-16T01:25:41.339Z,59.60
2022-12-16T01:28:09.260Z,59.10
2022-12-16T01:30:37.198Z,58.90
2022-12-16T01:33:05.148Z,59.20
2022-12-16T01:38:22.339Z,58.80
2022-12-16T01:40:50.457Z,58.80
2022-12-16T01:43:25.241Z,58.80
2022-12-16T01:45:53.494Z,59.00
2022-12-16T01:48:23.254Z,58.70
2022-12-16T01:50:52.502Z,58.80
2022-12-16T01:53:21.446Z,58.70
2022-12-16T01:55:49.968Z,58.50
2022-12-16T01:58:19.779Z,58.70
2022-12-16T02:00:47.689Z,58.40
2022-12-16T02:03:15.647Z,58.40
2022-12-16T02:05:43.882Z,58.40
2022-12-16T02:08:14.336Z,58.40
2022-12-16T02:10:55.674Z,58.30
2022-12-16T02:13:26.768Z,59.10
2022-12-16T02:15:59.132Z,58.80
2022-12-16T02:18:30.847Z,59.00
2022-12-16T02:21:08.694Z,58.60
2022-12-16T02:24:10.731Z,58.30
2022-12-16T02:26:59.815Z,58.30
2022-12-16T02:29:53.845Z,58.30
2022-12-16T02:32:26.572Z,58.30
2022-12-16T02:34:56.662Z,58.40
2022-12-16T02:37:30.450Z,58.30
2022-12-16T02:40:00.535Z,58.40
2022-12-16T02:42:31.167Z,58.30
2022-12-16T02:45:02.019Z,58.30
2022-12-16T02:47:31.335Z,57.90
2022-12-16T02:49:59.165Z,57.70
2022-12-16T02:52:28.237Z,57.90
2022-12-16T02:54:58.049Z,57.90
2022-12-16T02:57:36.655Z,57.80
2022-12-16T03:00:06.054Z,58.00
2022-12-16T03:02:39.139Z,57.60
2022-12-16T03:05:08.892Z,57.50
2022-12-16T03:07:37.268Z,57.40
2022-12-16T03:10:06.007Z,57.40
2022-12-16T03:12:33.984Z,57.40
2022-12-16T03:15:01.862Z,57.40
2022-12-16T03:17:29.736Z,57.40
2022-12-16T03:20:02.653Z,57.40
2022-12-16T03:22:30.624Z,57.70
2022-12-16T03:24:58.496Z,57.20
2022-12-16T03:27:28.232Z,57.50
2022-12-16T03:29:59.686Z,58.50
2022-12-16T03:32:29.421Z,57.50
2022-12-16T03:35:00.160Z,57.10
2022-12-16T03:37:29.920Z,56.90
2022-12-16T03:40:00.034Z,56.70
2022-12-16T03:42:27.927Z,56.70
2022-12-16T03:44:55.833Z,56.70
2022-12-16T03:47:24.256Z,56.80
2022-12-16T03:49:52.189Z,57.00
2022-12-16T03:52:21.364Z,57.00
2022-12-16T03:54:49.332Z,56.80
2022-12-16T03:57:17.173Z,56.90
2022-12-16T03:59:45.050Z,56.90
2022-12-16T04:02:13.064Z,57.60
2022-12-16T04:04:41.023Z,58.30
2022-12-16T04:07:24.685Z,58.30
2022-12-16T04:09:54.132Z,58.20
2022-12-16T04:12:39.380Z,58.40
2022-12-16T04:15:25.824Z,58.30
2022-12-16T04:18:11.155Z,58.10
2022-12-16T04:20:58.414Z,58.30
2022-12-16T04:23:44.616Z,58.00
2022-12-16T04:26:13.797Z,58.00
2022-12-16T04:28:41.727Z,57.90
2022-12-16T04:31:09.667Z,58.00
2022-12-16T04:33:55.302Z,57.70
2022-12-16T04:36:40.734Z,57.70
2022-12-16T04:39:26.539Z,58.10
2022-12-16T04:42:13.313Z,57.80
2022-12-16T04:44:58.702Z,57.70
2022-12-16T04:47:44.718Z,57.70
2022-12-16T04:50:30.211Z,57.70
2022-12-16T04:53:15.879Z,57.70
2022-12-16T04:56:04.461Z,57.50
2022-12-16T04:58:51.465Z,57.60
2022-12-16T05:01:39.191Z,57.70
2022-12-16T05:04:24.897Z,57.40
2022-12-16T05:07:10.512Z,57.40
2022-12-16T05:09:56.009Z,57.60
2022-12-16T05:12:49.753Z,57.50
2022-12-16T05:15:36.545Z,57.60
2022-12-16T05:18:27.510Z,57.60
2022-12-16T05:21:13.071Z,57.40
2022-12-16T05:23:58.603Z,57.40
2022-12-16T05:26:44.147Z,57.20
2022-12-16T05:29:29.622Z,57.30
2022-12-16T05:32:16.566Z,57.00
2022-12-16T05:35:02.246Z,57.10
2022-12-16T05:37:44.061Z,56.60
2022-12-16T05:40:29.932Z,56.90
2022-12-16T05:43:17.001Z,56.80
2022-12-16T05:46:02.548Z,56.70
2022-12-16T05:48:49.434Z,56.90
2022-12-16T05:51:35.118Z,56.50
2022-12-16T05:54:20.785Z,56.70
2022-12-16T05:57:06.252Z,56.60
2022-12-16T05:59:51.888Z,56.50
2022-12-16T06:02:37.854Z,56.60
2022-12-16T06:05:25.260Z,56.50
2022-12-16T06:08:10.919Z,56.40
2022-12-16T06:10:56.418Z,56.30
2022-12-16T06:13:41.950Z,56.10
2022-12-16T06:16:27.372Z,56.00
2022-12-16T06:19:21.259Z,56.70
2022-12-16T06:22:08.102Z,57.00
2022-12-16T06:24:53.772Z,57.10
2022-12-16T06:27:39.380Z,57.30
2022-12-16T06:30:25.725Z,57.30
2022-12-16T06:33:11.220Z,57.40
2022-12-16T06:35:56.777Z,57.20
2022-12-16T06:38:43.722Z,57.30
2022-12-16T06:41:29.339Z,57.40
2022-12-16T06:44:14.901Z,57.20
2022-12-16T06:47:05.519Z,57.50
2022-12-16T06:49:51.127Z,57.50
2022-12-16T06:52:36.656Z,57.70
2022-12-16T06:55:23.666Z,58.00
2022-12-16T06:58:15.920Z,58.10
2022-12-16T07:01:01.383Z,58.00
2022-12-16T07:03:46.727Z,58.00
2022-12-16T07:06:32.093Z,58.00
2022-12-16T07:09:17.766Z,58.00
2022-12-16T07:12:04.633Z,58.30
2022-12-16T07:14:50.238Z,58.30
2022-12-16T07:17:35.490Z,58.10
2022-12-16T07:20:21.040Z,58.00
2022-12-16T07:23:13.068Z,57.70
2022-12-16T07:26:03.373Z,57.60
2022-12-16T07:28:50.194Z,57.60
2022-12-16T07:31:35.760Z,57.50
2022-12-16T07:34:21.132Z,57.50
2022-12-16T07:37:06.460Z,57.40
2022-12-16T07:39:55.128Z,57.40
2022-12-16T07:42:41.434Z,57.20
2022-12-16T07:45:28.729Z,56.90
2022-12-16T07:48:14.194Z,56.70
2022-12-16T07:50:59.971Z,56.70
2022-12-16T07:53:45.507Z,56.60
2022-12-16T07:56:31.149Z,56.40
2022-12-16T07:59:16.624Z,56.30
2022-12-16T08:02:03.429Z,56.30
2022-12-16T08:04:49.074Z,56.20
2022-12-16T08:07:34.446Z,56.20
2022-12-16T08:10:19.838Z,56.10
2022-12-16T08:13:05.457Z,56.10
2022-12-16T08:15:51.103Z,55.80
2022-12-16T08:18:36.959Z,55.40
2022-12-16T08:21:22.329Z,55.50
2022-12-16T08:24:07.605Z,55.40
2022-12-16T08:26:53.165Z,55.40
2022-12-16T08:29:44.079Z,55.30
2022-12-16T08:32:29.944Z,55.20
2022-12-16T08:35:17.001Z,55.70
2022-12-16T08:38:02.520Z,55.20
2022-12-16T08:40:48.059Z,55.00
2022-12-16T08:43:34.006Z,54.80
2022-12-16T08:46:19.808Z,54.70
2022-12-16T08:49:05.230Z,54.70
2022-12-16T08:51:52.119Z,54.70
2022-12-16T08:54:37.637Z,54.80
2022-12-16T08:57:23.346Z,54.90
2022-12-16T09:00:08.739Z,56.00
2022-12-16T09:02:55.533Z,55.10
2022-12-16T09:05:43.097Z,54.90
2022-12-16T09:08:31.325Z,55.10
2022-12-16T09:11:18.999Z,55.10
2022-12-16T09:14:04.682Z,55.30
2022-12-16T09:16:50.313Z,55.30
2022-12-16T09:19:37.215Z,55.20
2022-12-16T09:22:22.988Z,55.30
2022-12-16T09:25:10.846Z,55.40
2022-12-16T09:27:56.476Z,55.50
2022-12-16T09:30:42.078Z,55.40
2022-12-16T09:33:27.489Z,55.40
2022-12-16T09:36:13.060Z,55.30
2022-12-16T09:38:58.628Z,55.30
2022-12-16T09:41:59.894Z,55.20
2022-12-16T09:44:53.612Z,55.10
2022-12-16T09:47:43.431Z,55.00
2022-12-16T09:50:35.999Z,55.10
2022-12-16T09:53:21.591Z,55.00
2022-12-16T09:56:07.202Z,55.90
2022-12-16T09:59:09.519Z,54.90
2022-12-16T10:01:55.913Z,54.90
2022-12-16T10:04:41.610Z,54.70
2022-12-16T10:07:28.217Z,54.70
2022-12-16T10:10:22.621Z,54.70
2022-12-16T10:13:19.711Z,54.70
2022-12-16T10:16:09.986Z,54.60
2022-12-16T10:19:02.046Z,54.50
2022-12-16T10:21:49.143Z,54.50
2022-12-16T10:24:40.319Z,54.40
2022-12-16T10:27:31.332Z,54.40
2022-12-16T10:30:16.595Z,54.50
2022-12-16T10:33:05.025Z,54.40
2022-12-16T10:35:52.901Z,54.20
2022-12-16T10:38:42.333Z,54.10
2022-12-16T10:41:27.697Z,55.00
2022-12-16T10:44:13.453Z,53.80
2022-12-16T10:46:59.044Z,53.80
2022-12-16T10:49:50.823Z,53.60
2022-12-16T10:52:39.825Z,53.50
2022-12-16T10:55:31.379Z,53.40
2022-12-16T10:58:21.033Z,53.50
2022-12-16T11:01:09.115Z,53.50
2022-12-16T11:03:55.204Z,53.30
2022-12-16T11:06:45.199Z,53.60
2022-12-16T11:09:33.164Z,53.50
2022-12-16T11:12:42.372Z,53.50
2022-12-16T11:15:42.380Z,53.80
2022-12-16T11:18:29.025Z,53.80
2022-12-16T11:21:27.368Z,53.90
2022-12-16T11:24:34.163Z,53.80
2022-12-16T11:27:20.528Z,53.60
2022-12-16T11:30:13.202Z,53.60
2022-12-16T11:33:00.630Z,53.50
2022-12-16T11:35:47.035Z,53.60
2022-12-16T11:38:38.444Z,53.60
2022-12-16T11:41:25.795Z,53.50
2022-12-16T11:44:11.339Z,53.50
2022-12-16T11:46:57.012Z,53.40
2022-12-16T11:49:45.715Z,53.20
2022-12-16T11:52:39.435Z,54.30
2022-12-16T11:56:03.334Z,53.20
2022-12-16T11:58:42.322Z,53.10
2022-12-16T12:01:31.311Z,53.10
2022-12-16T12:04:16.784Z,53.00
2022-12-16T12:07:14.355Z,53.00
2022-12-16T12:10:02.930Z,52.90
2022-12-16T12:12:51.536Z,52.80
2022-12-16T12:15:43.790Z,52.80
2022-12-16T12:18:35.554Z,52.70
2022-12-16T12:21:23.351Z,52.60
2022-12-16T12:24:12.037Z,52.60
2022-12-16T12:27:00.724Z,52.50
2022-12-16T12:29:49.336Z,52.50
2022-12-16T12:32:38.103Z,52.40
2022-12-16T12:35:28.917Z,52.40
2022-12-16T12:38:17.221Z,52.40
2022-12-16T12:41:08.174Z,52.40
2022-12-16T12:43:58.471Z,52.40
2022-12-16T12:46:45.273Z,52.50
2022-12-16T12:49:35.158Z,52.40
2022-12-16T12:52:24.383Z,52.40
2022-12-16T12:55:12.242Z,52.30
2022-12-16T12:57:58.035Z,52.40
2022-12-16T13:00:44.126Z,52.40
2022-12-16T13:03:33.071Z,52.40
2022-12-16T13:06:20.151Z,52.50
2022-12-16T13:09:14.288Z,52.40
2022-12-16T13:12:39.401Z,52.40
2022-12-16T13:15:25.572Z,52.40
2022-12-16T13:18:44.614Z,52.40
2022-12-16T13:22:05.844Z,52.40
2022-12-16T13:24:57.754Z,52.40
2022-12-16T13:27:45.474Z,52.40
2022-12-16T13:30:39.995Z,52.50
2022-12-16T13:33:26.816Z,52.50
2022-12-16T13:36:12.684Z,52.40
2022-12-16T13:39:04.928Z,52.40
2022-12-16T13:42:17.018Z,52.50
2022-12-16T13:45:16.115Z,53.50
2022-12-16T13:48:17.673Z,52.50
2022-12-16T13:51:03.664Z,52.50
2022-12-16T13:53:58.737Z,52.40
2022-12-16T13:56:49.342Z,52.40
2022-12-16T13:59:36.156Z,52.50
2022-12-16T14:02:31.183Z,52.30
2022-12-16T14:05:16.626Z,52.30
2022-12-16T14:08:10.602Z,52.40
2022-12-16T14:10:57.702Z,52.30
2022-12-16T14:13:46.400Z,52.30
2022-12-16T14:16:34.131Z,52.40
2022-12-16T14:19:27.698Z,52.40
2022-12-16T14:22:16.084Z,52.30
2022-12-16T14:25:01.617Z,52.20
2022-12-16T14:27:46.326Z,52.20
2022-12-16T14:30:37.751Z,52.20
2022-12-16T14:33:36.657Z,52.10
2022-12-16T14:36:22.382Z,52.00
2022-12-16T14:39:08.123Z,52.00
2022-12-16T14:42:05.103Z,52.00
2022-12-16T14:44:50.276Z,51.80
2022-12-16T14:47:37.485Z,51.90
2022-12-16T14:50:28.844Z,51.80
2022-12-16T14:53:26.458Z,51.80
2022-12-16T14:56:14.082Z,51.80
2022-12-16T14:58:59.527Z,51.90
2022-12-16T15:01:45.307Z,51.90
2022-12-16T15:04:33.356Z,52.00
2022-12-16T15:07:18.723Z,52.00
2022-12-16T15:10:05.235Z,52.00
2022-12-16T15:12:53.256Z,52.00
2022-12-16T15:16:01.439Z,52.00
2022-12-16T15:18:49.572Z,52.00
2022-12-16T15:21:36.522Z,52.00
2022-12-16T15:24:26.507Z,52.00
2022-12-16T15:27:32.187Z,52.00
2022-12-16T15:30:17.713Z,52.00
2022-12-16T15:33:10.076Z,51.90
2022-12-16T15:35:56.037Z,52.00
2022-12-16T15:38:46.937Z,52.20
2022-12-16T15:41:42.586Z,52.20
2022-12-16T15:44:35.247Z,52.10
2022-12-16T15:47:20.950Z,53.10
2022-12-16T15:50:06.505Z,52.00
2022-12-16T15:52:56.266Z,52.10
2022-12-16T15:55:45.920Z,52.10
2022-12-16T15:58:33.070Z,52.20
2022-12-16T16:01:18.584Z,52.20
2022-12-16T16:04:08.206Z,52.30
2022-12-16T16:06:54.052Z,52.40
2022-12-16T16:09:40.254Z,52.50
2022-12-16T16:12:28.030Z,52.50
2022-12-16T16:15:13.670Z,52.50
2022-12-16T16:17:59.258Z,52.70
2022-12-16T16:20:44.589Z,53.10
2022-12-16T16:23:29.878Z,53.10
2022-12-16T16:26:15.370Z,53.00
2022-12-16T16:29:02.248Z,53.10
2022-12-16T16:31:47.949Z,53.10
2022-12-16T16:34:33.534Z,53.10
2022-12-16T16:37:20.381Z,53.00
2022-12-16T16:40:05.995Z,53.00
2022-12-16T16:43:03.010Z,53.00
2022-12-16T16:45:49.947Z,53.00
2022-12-16T16:48:35.995Z,52.90
2022-12-16T16:51:22.662Z,53.00
2022-12-16T16:54:08.210Z,53.20
2022-12-16T16:56:54.290Z,53.20
2022-12-16T16:59:40.236Z,53.00
2022-12-16T17:02:40.271Z,53.00
2022-12-16T17:05:27.029Z,52.90
2022-12-16T17:08:12.546Z,52.90
2022-12-16T17:10:58.212Z,52.90
2022-12-16T17:13:43.937Z,52.80
2022-12-16T17:16:29.577Z,52.70
2022-12-16T17:19:16.798Z,52.80
2022-12-16T17:22:02.150Z,52.90
2022-12-16T17:24:51.410Z,53.20
2022-12-16T17:27:40.395Z,53.50
2022-12-16T17:30:31.369Z,53.40
2022-12-16T17:33:17.005Z,53.70
2022-12-16T17:36:04.149Z,53.70
2022-12-16T17:38:49.448Z,53.60
2022-12-16T17:41:35.184Z,53.60
2022-12-16T17:44:20.710Z,53.50
2022-12-16T17:47:09.317Z,53.50
2022-12-16T17:49:55.028Z,53.60
2022-12-16T17:52:41.810Z,53.60
2022-12-16T17:55:28.609Z,53.60
2022-12-16T17:58:13.951Z,53.40
2022-12-16T18:00:59.452Z,53.40
2022-12-16T18:03:45.106Z,53.40
2022-12-16T18:06:30.713Z,53.60
2022-12-16T18:09:17.691Z,53.40
2022-12-16T18:12:03.544Z,53.40
2022-12-16T18:14:48.971Z,53.40
2022-12-16T18:17:34.928Z,53.60
2022-12-16T18:20:19.620Z,53.60
2022-12-16T18:23:05.243Z,53.70
2022-12-16T18:25:55.214Z,53.60
2022-12-16T18:28:40.756Z,53.50
2022-12-16T18:31:40.947Z,53.60
2022-12-16T18:34:26.607Z,53.60
2022-12-16T18:37:12.212Z,53.70
2022-12-16T18:39:57.801Z,53.60
2022-12-16T18:42:44.539Z,53.60
2022-12-16T18:45:30.199Z,53.40
2022-12-16T18:48:18.458Z,53.40
2022-12-16T18:51:03.926Z,53.40
2022-12-16T18:53:49.570Z,53.50
2022-12-16T18:56:35.362Z,53.40
2022-12-16T18:59:22.194Z,53.40
2022-12-16T19:02:07.921Z,53.40
2022-12-16T19:05:01.773Z,53.40
2022-12-16T19:07:47.507Z,54.40
2022-12-16T19:10:33.064Z,53.40
2022-12-16T19:13:14.969Z,53.10
2022-12-16T19:16:01.821Z,52.90
2022-12-16T19:18:47.168Z,52.70
2022-12-16T19:21:32.742Z,52.60
2022-12-16T19:24:18.274Z,52.50
2022-12-16T19:27:03.818Z,52.40
2022-12-16T19:29:49.310Z,52.30
2022-12-16T19:32:36.319Z,52.20
2022-12-16T19:35:21.972Z,52.10
2022-12-16T19:38:07.267Z,52.00
2022-12-16T19:40:52.904Z,52.00
2022-12-16T19:43:39.732Z,52.10
2022-12-16T19:46:33.662Z,52.20
2022-12-16T19:49:20.638Z,52.10
2022-12-16T19:52:06.294Z,52.10
2022-12-16T19:54:51.641Z,52.10
2022-12-16T19:57:37.090Z,52.20
2022-12-16T20:00:23.246Z,52.20
2022-12-16T20:03:09.509Z,52.70
2022-12-16T20:05:56.610Z,52.20
2022-12-16T20:08:42.169Z,52.20
2022-12-16T20:11:27.470Z,52.50
2022-12-16T20:14:12.962Z,52.50
2022-12-16T20:16:58.371Z,52.40
2022-12-16T20:19:44.006Z,52.30
2022-12-16T20:22:30.966Z,52.40
2022-12-16T20:25:16.511Z,52.30
2022-12-16T20:28:04.317Z,52.30
2022-12-16T20:30:49.997Z,52.20
2022-12-16T20:33:35.554Z,52.20
2022-12-16T20:36:22.600Z,52.30
2022-12-16T20:39:09.340Z,52.20
2022-12-16T20:41:51.774Z,52.20
2022-12-16T20:44:37.429Z,52.20
2022-12-16T20:47:34.495Z,52.20
2022-12-16T20:50:19.940Z,52.10
2022-12-16T20:53:05.492Z,52.30
2022-12-16T20:55:52.363Z,52.40
2022-12-16T20:58:42.060Z,52.50
2022-12-16T21:01:27.554Z,52.50
2022-12-16T21:04:13.461Z,52.60
2022-12-16T21:06:59.075Z,52.60
2022-12-16T21:09:44.855Z,52.60
2022-12-16T21:12:31.923Z,52.70
2022-12-16T21:15:17.395Z,52.70
2022-12-16T21:18:02.980Z,52.90
2022-12-16T21:20:48.295Z,53.40
2022-12-16T21:23:33.909Z,53.60
2022-12-16T21:26:21.786Z,54.30
2022-12-16T21:29:08.664Z,55.10
2022-12-16T21:31:56.480Z,55.30
2022-12-16T21:34:43.730Z,55.70
2022-12-16T21:37:29.308Z,57.30
2022-12-16T21:40:14.879Z,56.70
2022-12-16T21:43:00.349Z,57.10
2022-12-16T21:45:52.347Z,56.90
2022-12-16T21:48:41.879Z,57.30
2022-12-16T21:51:27.526Z,57.70
2022-12-16T21:54:12.977Z,58.10
2022-12-16T21:56:58.512Z,58.10
2022-12-16T21:59:53.193Z,58.50
2022-12-16T22:02:43.281Z,58.40
2022-12-16T22:05:28.802Z,58.50
2022-12-16T22:08:14.252Z,58.50
2022-12-16T22:10:59.807Z,58.60
2022-12-16T22:13:45.223Z,58.70
2022-12-16T22:16:30.722Z,58.60
2022-12-16T22:19:17.450Z,58.80
2022-12-16T22:22:03.017Z,58.80
2022-12-16T22:24:48.309Z,58.80
2022-12-16T22:27:33.853Z,58.70
2022-12-16T22:30:19.012Z,58.80
2022-12-16T22:33:05.184Z,58.80
2022-12-16T22:35:52.447Z,58.80
2022-12-16T22:38:37.773Z,58.80
2022-12-16T22:41:23.681Z,58.80
2022-12-16T22:44:09.013Z,58.80
2022-12-16T22:46:56.136Z,58.80
2022-12-16T22:49:50.124Z,58.70
2022-12-16T22:52:37.107Z,58.70
2022-12-16T22:55:23.199Z,58.80
2022-12-16T22:58:08.542Z,58.70
2022-12-16T23:00:56.468Z,58.70
2022-12-16T23:03:42.503Z,58.70
2022-12-16T23:06:28.161Z,58.70
2022-12-16T23:09:15.082Z,58.60
2022-12-16T23:12:00.880Z,58.60
2022-12-16T23:14:46.327Z,58.60
2022-12-16T23:17:32.011Z,58.50
2022-12-16T23:20:17.405Z,58.50
2022-12-16T23:23:02.901Z,58.40
2022-12-16T23:25:49.734Z,58.50
2022-12-16T23:28:35.322Z,58.40
2022-12-16T23:31:20.764Z,58.30
2022-12-16T23:34:05.947Z,58.40
2022-12-16T23:36:51.453Z,58.40
2022-12-16T23:39:39.007Z,58.30
2022-12-16T23:42:25.751Z,58.30
2022-12-16T23:45:11.414Z,58.20
2022-12-16T23:47:57.012Z,58.20
2022-12-16T23:50:42.595Z,58.30
2022-12-16T23:53:29.126Z,58.20
2022-12-16T23:56:14.695Z,58.20
2022-12-16T23:59:01.675Z,58.20
